createdAt,value
2018-08-18T00:00:05.229Z,8.04672
2018-08-18T00:00:17.667Z,8.04672
2018-08-18T00:00:30.100Z,9.656064
2018-08-18T00:00:42.520Z,9.656064
2018-08-18T00:00:54.946Z,6.437376
2018-08-18T00:01:07.373Z,11.265408
2018-08-18T00:01:19.805Z,8.04672
2018-08-18T00:01:32.234Z,8.04672
2018-08-18T00:01:44.658Z,11.265408
2018-08-18T00:01:57.065Z,6.437376
2018-08-18T00:02:09.487Z,12.874752
2018-08-18T00:02:21.914Z,12.874752
2018-08-18T00:02:34.513Z,6.437376
2018-08-18T00:02:46.934Z,6.437376
2018-08-18T00:02:59.398Z,9.656064
2018-08-18T00:03:11.835Z,6.437376
2018-08-18T00:03:24.249Z,6.437376
2018-08-18T00:03:36.677Z,9.656064
2018-08-18T00:03:49.088Z,6.437376
2018-08-18T00:04:01.503Z,8.04672
2018-08-18T00:04:13.917Z,8.04672
2018-08-18T00:04:26.331Z,9.656064
2018-08-18T00:04:38.795Z,6.437376
2018-08-18T00:04:51.209Z,6.437376
2018-08-18T00:05:03.639Z,9.656064
2018-08-18T00:05:16.063Z,8.04672
2018-08-18T00:05:28.473Z,6.437376
2018-08-18T00:05:40.892Z,1.609344
2018-08-18T00:05:53.315Z,1.609344
2018-08-18T00:06:05.739Z,8.04672
2018-08-18T00:06:18.161Z,8.04672
2018-08-18T00:06:30.579Z,8.04672
2018-08-18T00:06:43.000Z,8.04672
2018-08-18T00:06:55.413Z,6.437376
2018-08-18T00:07:07.860Z,9.656064
2018-08-18T00:07:20.270Z,3.218688
2018-08-18T00:07:32.692Z,1.609344
2018-08-18T00:07:45.252Z,9.656064
2018-08-18T00:07:57.695Z,6.437376
2018-08-18T00:08:10.132Z,6.437376
2018-08-18T00:08:22.566Z,4.828032
2018-08-18T00:08:35.092Z,3.218688
2018-08-18T00:08:47.523Z,9.656064
2018-08-18T00:08:59.950Z,9.656064
2018-08-18T00:09:12.368Z,8.04672
2018-08-18T00:09:24.792Z,8.04672
2018-08-18T00:09:37.209Z,6.437376
2018-08-18T00:09:49.636Z,3.218688
2018-08-18T00:10:02.050Z,3.218688
2018-08-18T00:10:14.500Z,4.828032
2018-08-18T00:10:26.975Z,6.437376
2018-08-18T00:10:39.529Z,8.04672
2018-08-18T00:10:51.956Z,3.218688
2018-08-18T00:11:04.430Z,3.218688
2018-08-18T00:11:16.879Z,6.437376
2018-08-18T00:11:29.299Z,8.04672
2018-08-18T00:11:41.742Z,6.437376
2018-08-18T00:11:54.160Z,8.04672
2018-08-18T00:12:06.591Z,8.04672
2018-08-18T00:12:19.028Z,4.828032
2018-08-18T00:12:31.425Z,1.609344
2018-08-18T00:12:43.839Z,3.218688
2018-08-18T00:12:56.280Z,6.437376
2018-08-18T00:13:08.699Z,11.265408
2018-08-18T00:13:21.126Z,9.656064
2018-08-18T00:13:34.087Z,8.04672
2018-08-18T00:13:46.546Z,8.04672
2018-08-18T00:13:58.970Z,8.04672
2018-08-18T00:14:11.394Z,8.04672
2018-08-18T00:14:23.832Z,6.437376
2018-08-18T00:14:36.255Z,6.437376
2018-08-18T00:14:48.693Z,6.437376
2018-08-18T00:15:01.122Z,8.04672
2018-08-18T00:15:13.541Z,4.828032
2018-08-18T00:15:25.981Z,9.656064
2018-08-18T00:15:38.407Z,9.656064
2018-08-18T00:15:50.837Z,9.656064
2018-08-18T00:16:03.250Z,11.265408
2018-08-18T00:16:15.672Z,8.04672
2018-08-18T00:16:28.093Z,6.437376
2018-08-18T00:16:40.685Z,6.437376
2018-08-18T00:16:53.091Z,6.437376
2018-08-18T00:17:05.523Z,9.656064
2018-08-18T00:17:17.971Z,8.04672
2018-08-18T00:17:30.429Z,8.04672
2018-08-18T00:17:42.988Z,6.437376
2018-08-18T00:17:55.544Z,12.874752
2018-08-18T00:18:07.959Z,8.04672
2018-08-18T00:18:20.387Z,9.656064
2018-08-18T00:18:32.859Z,11.265408
2018-08-18T00:18:45.288Z,12.874752
2018-08-18T00:18:57.711Z,8.04672
2018-08-18T00:19:10.161Z,4.828032
2018-08-18T00:19:22.566Z,16.09344
2018-08-18T00:19:34.982Z,12.874752
2018-08-18T00:19:47.402Z,8.04672
2018-08-18T00:19:59.806Z,11.265408
2018-08-18T00:20:12.238Z,9.656064
2018-08-18T00:20:24.721Z,8.04672
2018-08-18T00:20:37.141Z,6.437376
2018-08-18T00:20:49.660Z,4.828032
2018-08-18T00:21:02.076Z,3.218688
2018-08-18T00:21:14.508Z,6.437376
2018-08-18T00:21:26.963Z,9.656064
2018-08-18T00:21:39.388Z,6.437376
2018-08-18T00:21:51.811Z,9.656064
2018-08-18T00:22:04.247Z,8.04672
2018-08-18T00:22:16.870Z,9.656064
2018-08-18T00:22:29.284Z,8.04672
2018-08-18T00:22:41.694Z,6.437376
2018-08-18T00:22:54.101Z,6.437376
2018-08-18T00:23:06.520Z,8.04672
2018-08-18T00:23:18.929Z,8.04672
2018-08-18T00:23:31.383Z,8.04672
2018-08-18T00:23:43.796Z,6.437376
2018-08-18T00:23:56.219Z,4.828032
2018-08-18T00:24:08.625Z,1.609344
2018-08-18T00:24:21.035Z,3.218688
2018-08-18T00:24:33.439Z,3.218688
2018-08-18T00:24:45.918Z,1.609344
2018-08-18T00:24:58.342Z,3.218688
2018-08-18T00:25:10.935Z,8.04672
2018-08-18T00:25:23.399Z,6.437376
2018-08-18T00:25:35.821Z,6.437376
2018-08-18T00:25:48.230Z,6.437376
2018-08-18T00:26:00.634Z,11.265408
2018-08-18T00:26:13.031Z,12.874752
2018-08-18T00:26:25.441Z,9.656064
2018-08-18T00:26:37.986Z,6.437376
2018-08-18T00:26:50.432Z,8.04672
2018-08-18T00:27:02.858Z,8.04672
2018-08-18T00:27:15.286Z,9.656064
2018-08-18T00:27:27.876Z,6.437376
2018-08-18T00:27:40.283Z,11.265408
2018-08-18T00:27:52.712Z,8.04672
2018-08-18T00:28:05.128Z,8.04672
2018-08-18T00:28:17.529Z,9.656064
2018-08-18T00:28:29.933Z,8.04672
2018-08-18T00:28:42.325Z,6.437376
2018-08-18T00:28:54.732Z,4.828032
2018-08-18T00:29:07.145Z,3.218688
2018-08-18T00:29:19.706Z,8.04672
2018-08-18T00:29:32.302Z,8.04672
2018-08-18T00:29:44.716Z,4.828032
2018-08-18T00:29:57.128Z,3.218688
2018-08-18T00:30:09.525Z,4.828032
2018-08-18T00:30:21.999Z,1.609344
2018-08-18T00:30:34.417Z,8.04672
2018-08-18T00:30:46.852Z,4.828032
2018-08-18T00:30:59.263Z,8.04672
2018-08-18T00:31:11.670Z,6.437376
2018-08-18T00:31:24.063Z,3.218688
2018-08-18T00:31:36.473Z,4.828032
2018-08-18T00:31:48.895Z,6.437376
2018-08-18T00:32:01.333Z,6.437376
2018-08-18T00:32:13.756Z,9.656064
2018-08-18T00:32:26.171Z,6.437376
2018-08-18T00:32:38.561Z,1.609344
2018-08-18T00:32:51.103Z,0
2018-08-18T00:33:03.538Z,1.609344
2018-08-18T00:33:15.962Z,3.218688
2018-08-18T00:33:28.395Z,1.609344
2018-08-18T00:33:40.822Z,8.04672
2018-08-18T00:33:53.212Z,3.218688
2018-08-18T00:34:05.613Z,3.218688
2018-08-18T00:34:18.706Z,3.218688
2018-08-18T00:34:31.927Z,1.609344
2018-08-18T00:34:44.355Z,3.218688
2018-08-18T00:34:56.794Z,1.609344
2018-08-18T00:35:09.227Z,8.04672
2018-08-18T00:35:21.804Z,3.218688
2018-08-18T00:35:34.255Z,3.218688
2018-08-18T00:35:46.714Z,1.609344
2018-08-18T00:35:59.183Z,3.218688
2018-08-18T00:36:11.601Z,6.437376
2018-08-18T00:36:24.070Z,3.218688
2018-08-18T00:36:36.497Z,6.437376
2018-08-18T00:36:48.964Z,6.437376
2018-08-18T00:37:01.514Z,3.218688
2018-08-18T00:37:13.917Z,6.437376
2018-08-18T00:37:26.371Z,4.828032
2018-08-18T00:37:38.847Z,6.437376
2018-08-18T00:37:51.282Z,6.437376
2018-08-18T00:38:03.720Z,6.437376
2018-08-18T00:38:16.145Z,3.218688
2018-08-18T00:38:28.543Z,3.218688
2018-08-18T00:38:41.089Z,1.609344
2018-08-18T00:38:53.495Z,0
2018-08-18T00:39:05.909Z,3.218688
2018-08-18T00:39:18.333Z,6.437376
2018-08-18T00:39:30.758Z,8.04672
2018-08-18T00:39:43.195Z,8.04672
2018-08-18T00:39:55.675Z,3.218688
2018-08-18T00:40:08.281Z,1.609344
2018-08-18T00:40:20.709Z,0
2018-08-18T00:40:33.199Z,1.609344
2018-08-18T00:40:45.637Z,1.609344
2018-08-18T00:40:58.065Z,0
2018-08-18T00:41:10.493Z,0
2018-08-18T00:41:22.954Z,0
2018-08-18T00:41:35.363Z,1.609344
2018-08-18T00:41:47.792Z,0
2018-08-18T00:42:00.216Z,1.609344
2018-08-18T00:42:12.632Z,0
2018-08-18T00:42:25.082Z,1.609344
2018-08-18T00:42:37.521Z,3.218688
2018-08-18T00:42:49.986Z,1.609344
2018-08-18T00:43:02.441Z,1.609344
2018-08-18T00:43:14.884Z,4.828032
2018-08-18T00:43:27.366Z,3.218688
2018-08-18T00:43:39.773Z,8.04672
2018-08-18T00:43:52.184Z,8.04672
2018-08-18T00:44:04.598Z,6.437376
2018-08-18T00:44:17.015Z,8.04672
2018-08-18T00:44:29.507Z,6.437376
2018-08-18T00:44:41.926Z,3.218688
2018-08-18T00:44:54.375Z,4.828032
2018-08-18T00:45:06.789Z,3.218688
2018-08-18T00:45:19.249Z,1.609344
2018-08-18T00:45:31.708Z,3.218688
2018-08-18T00:45:44.129Z,3.218688
2018-08-18T00:45:56.556Z,3.218688
2018-08-18T00:46:08.993Z,1.609344
2018-08-18T00:46:21.409Z,1.609344
2018-08-18T00:46:33.821Z,0
2018-08-18T00:46:46.239Z,4.828032
2018-08-18T00:46:58.671Z,6.437376
2018-08-18T00:47:11.112Z,3.218688
2018-08-18T00:47:23.536Z,4.828032
2018-08-18T00:47:35.955Z,8.04672
2018-08-18T00:47:48.436Z,3.218688
2018-08-18T00:48:00.843Z,3.218688
2018-08-18T00:48:13.269Z,6.437376
2018-08-18T00:48:25.692Z,4.828032
2018-08-18T00:48:38.093Z,3.218688
2018-08-18T00:48:50.510Z,4.828032
2018-08-18T00:49:03.013Z,1.609344
2018-08-18T00:49:15.426Z,1.609344
2018-08-18T00:49:27.873Z,1.609344
2018-08-18T00:49:40.292Z,3.218688
2018-08-18T00:49:52.714Z,1.609344
2018-08-18T00:50:05.139Z,3.218688
2018-08-18T00:50:17.559Z,6.437376
2018-08-18T00:50:29.982Z,3.218688
2018-08-18T00:50:42.415Z,3.218688
2018-08-18T00:50:54.824Z,8.04672
2018-08-18T00:51:07.322Z,6.437376
2018-08-18T00:51:19.742Z,4.828032
2018-08-18T00:51:32.145Z,6.437376
2018-08-18T00:51:44.567Z,3.218688
2018-08-18T00:51:57.153Z,3.218688
2018-08-18T00:52:09.565Z,1.609344
2018-08-18T00:52:21.992Z,3.218688
2018-08-18T00:52:34.432Z,6.437376
2018-08-18T00:52:46.873Z,4.828032
2018-08-18T00:52:59.287Z,6.437376
2018-08-18T00:53:11.733Z,6.437376
2018-08-18T00:53:24.171Z,6.437376
2018-08-18T00:53:36.598Z,6.437376
2018-08-18T00:53:49.003Z,6.437376
2018-08-18T00:54:01.517Z,8.04672
2018-08-18T00:54:13.910Z,6.437376
2018-08-18T00:54:26.331Z,6.437376
2018-08-18T00:54:38.732Z,9.656064
2018-08-18T00:54:51.150Z,6.437376
2018-08-18T00:55:03.559Z,3.218688
2018-08-18T00:55:15.984Z,4.828032
2018-08-18T00:55:28.416Z,4.828032
2018-08-18T00:55:40.839Z,3.218688
2018-08-18T00:55:53.269Z,8.04672
2018-08-18T00:56:05.680Z,6.437376
2018-08-18T00:56:18.208Z,3.218688
2018-08-18T00:56:30.646Z,3.218688
2018-08-18T00:56:43.074Z,8.04672
2018-08-18T00:56:55.481Z,8.04672
2018-08-18T00:57:07.898Z,11.265408
2018-08-18T00:57:20.308Z,6.437376
2018-08-18T00:57:32.732Z,3.218688
2018-08-18T00:57:45.189Z,3.218688
2018-08-18T00:57:57.595Z,4.828032
2018-08-18T00:58:10.029Z,6.437376
2018-08-18T00:58:22.436Z,4.828032
2018-08-18T00:58:34.867Z,4.828032
2018-08-18T00:58:47.292Z,3.218688
2018-08-18T00:58:59.744Z,1.609344
2018-08-18T00:59:12.413Z,3.218688
2018-08-18T00:59:24.826Z,3.218688
2018-08-18T00:59:37.233Z,0
2018-08-18T00:59:49.647Z,0
2018-08-18T01:00:02.070Z,3.218688
2018-08-18T01:00:14.522Z,3.218688
2018-08-18T01:00:26.978Z,3.218688
2018-08-18T01:00:39.435Z,3.218688
2018-08-18T01:00:51.882Z,3.218688
2018-08-18T01:01:04.301Z,1.609344
2018-08-18T01:01:16.744Z,1.609344
2018-08-18T01:01:29.170Z,1.609344
2018-08-18T01:01:41.587Z,1.609344
2018-08-18T01:01:54.025Z,1.609344
2018-08-18T01:02:06.464Z,1.609344
2018-08-18T01:02:18.901Z,0
2018-08-18T01:02:31.355Z,3.218688
2018-08-18T01:02:43.955Z,3.218688
2018-08-18T01:02:56.440Z,1.609344
2018-08-18T01:03:08.864Z,1.609344
2018-08-18T01:03:21.345Z,3.218688
2018-08-18T01:03:33.796Z,1.609344
2018-08-18T01:03:46.258Z,1.609344
2018-08-18T01:03:58.694Z,0
2018-08-18T01:04:11.117Z,1.609344
2018-08-18T01:04:23.529Z,3.218688
2018-08-18T01:04:35.939Z,3.218688
2018-08-18T01:04:48.346Z,6.437376
2018-08-18T01:05:00.780Z,8.04672
2018-08-18T01:05:13.210Z,4.828032
2018-08-18T01:05:25.637Z,3.218688
2018-08-18T01:05:38.055Z,6.437376
2018-08-18T01:05:50.456Z,8.04672
2018-08-18T01:06:02.870Z,6.437376
2018-08-18T01:06:15.299Z,3.218688
2018-08-18T01:06:27.724Z,3.218688
2018-08-18T01:06:40.157Z,6.437376
2018-08-18T01:06:52.586Z,8.04672
2018-08-18T01:07:05.005Z,3.218688
2018-08-18T01:07:17.412Z,1.609344
2018-08-18T01:07:29.835Z,3.218688
2018-08-18T01:07:42.277Z,3.218688
2018-08-18T01:07:54.686Z,3.218688
2018-08-18T01:08:07.100Z,3.218688
2018-08-18T01:08:19.536Z,6.437376
2018-08-18T01:08:32.050Z,6.437376
2018-08-18T01:08:44.475Z,9.656064
2018-08-18T01:08:56.882Z,6.437376
2018-08-18T01:09:09.313Z,6.437376
2018-08-18T01:09:21.730Z,8.04672
2018-08-18T01:09:34.147Z,4.828032
2018-08-18T01:09:46.608Z,4.828032
2018-08-18T01:09:59.049Z,1.609344
2018-08-18T01:10:11.524Z,6.437376
2018-08-18T01:10:23.952Z,6.437376
2018-08-18T01:10:36.377Z,6.437376
2018-08-18T01:10:48.976Z,6.437376
2018-08-18T01:11:02.869Z,9.656064
2018-08-18T01:11:16.817Z,9.656064
2018-08-18T01:11:30.957Z,6.437376
2018-08-18T01:11:45.913Z,9.656064
2018-08-18T01:12:00.264Z,8.04672
2018-08-18T01:12:14.938Z,6.437376
2018-08-18T01:12:29.026Z,4.828032
2018-08-18T01:12:44.067Z,6.437376
2018-08-18T01:12:57.840Z,6.437376
2018-08-18T01:13:11.254Z,3.218688
2018-08-18T01:13:24.479Z,1.609344
2018-08-18T01:13:37.349Z,0
2018-08-18T01:13:51.660Z,0
2018-08-18T01:14:05.596Z,0
2018-08-18T01:14:19.797Z,3.218688
2018-08-18T01:14:34.213Z,3.218688
2018-08-18T01:14:47.641Z,1.609344
2018-08-18T01:15:01.718Z,1.609344
2018-08-18T01:15:14.474Z,4.828032
2018-08-18T01:15:26.949Z,4.828032
2018-08-18T01:15:40.040Z,1.609344
2018-08-18T01:15:53.472Z,3.218688
2018-08-18T01:16:05.937Z,4.828032
2018-08-18T01:16:18.389Z,4.828032
2018-08-18T01:16:30.837Z,4.828032
2018-08-18T01:16:44.121Z,6.437376
2018-08-18T01:16:56.557Z,6.437376
2018-08-18T01:17:08.989Z,1.609344
2018-08-18T01:17:21.418Z,3.218688
2018-08-18T01:17:33.830Z,3.218688
2018-08-18T01:17:46.523Z,3.218688
2018-08-18T01:17:58.969Z,3.218688
2018-08-18T01:18:11.452Z,3.218688
2018-08-18T01:18:23.881Z,6.437376
2018-08-18T01:18:36.335Z,6.437376
2018-08-18T01:18:48.796Z,3.218688
2018-08-18T01:19:01.232Z,3.218688
2018-08-18T01:19:13.649Z,9.656064
2018-08-18T01:19:26.082Z,6.437376
2018-08-18T01:19:38.480Z,3.218688
2018-08-18T01:19:50.877Z,3.218688
2018-08-18T01:20:03.309Z,3.218688
2018-08-18T01:20:15.728Z,4.828032
2018-08-18T01:20:28.139Z,0
2018-08-18T01:20:40.779Z,0
2018-08-18T01:20:53.210Z,1.609344
2018-08-18T01:21:05.626Z,3.218688
2018-08-18T01:21:18.171Z,3.218688
2018-08-18T01:21:31.463Z,3.218688
2018-08-18T01:21:44.328Z,4.828032
2018-08-18T01:21:56.732Z,3.218688
2018-08-18T01:22:09.154Z,3.218688
2018-08-18T01:22:21.640Z,3.218688
2018-08-18T01:22:34.061Z,3.218688
2018-08-18T01:22:46.497Z,1.609344
2018-08-18T01:22:58.932Z,1.609344
2018-08-18T01:23:11.394Z,1.609344
2018-08-18T01:23:23.829Z,3.218688
2018-08-18T01:23:36.282Z,3.218688
2018-08-18T01:23:48.706Z,6.437376
2018-08-18T01:24:01.139Z,3.218688
2018-08-18T01:24:13.579Z,1.609344
2018-08-18T01:24:26.041Z,1.609344
2018-08-18T01:24:38.466Z,1.609344
2018-08-18T01:24:50.904Z,0
2018-08-18T01:25:03.361Z,0
2018-08-18T01:25:15.778Z,0
2018-08-18T01:25:28.183Z,1.609344
2018-08-18T01:25:40.675Z,1.609344
2018-08-18T01:25:53.121Z,1.609344
2018-08-18T01:26:05.580Z,1.609344
2018-08-18T01:26:18.007Z,3.218688
2018-08-18T01:26:30.435Z,3.218688
2018-08-18T01:26:42.934Z,3.218688
2018-08-18T01:26:55.353Z,3.218688
2018-08-18T01:27:08.611Z,3.218688
2018-08-18T01:27:21.751Z,3.218688
2018-08-18T01:27:34.199Z,3.218688
2018-08-18T01:27:46.645Z,1.609344
2018-08-18T01:27:59.087Z,1.609344
2018-08-18T01:28:11.502Z,1.609344
2018-08-18T01:28:23.925Z,1.609344
2018-08-18T01:28:36.365Z,1.609344
2018-08-18T01:28:48.789Z,1.609344
2018-08-18T01:29:01.196Z,1.609344
2018-08-18T01:29:13.619Z,0
2018-08-18T01:29:26.039Z,0
2018-08-18T01:29:38.472Z,1.609344
2018-08-18T01:29:50.898Z,1.609344
2018-08-18T01:30:03.326Z,1.609344
2018-08-18T01:30:15.754Z,1.609344
2018-08-18T01:30:28.200Z,1.609344
2018-08-18T01:30:40.638Z,1.609344
2018-08-18T01:30:53.075Z,1.609344
2018-08-18T01:31:05.517Z,1.609344
2018-08-18T01:31:17.980Z,1.609344
2018-08-18T01:31:30.422Z,1.609344
2018-08-18T01:31:42.871Z,4.828032
2018-08-18T01:31:55.314Z,8.04672
2018-08-18T01:32:07.715Z,3.218688
2018-08-18T01:32:20.123Z,3.218688
2018-08-18T01:32:32.685Z,4.828032
2018-08-18T01:32:45.224Z,6.437376
2018-08-18T01:32:57.629Z,3.218688
2018-08-18T01:33:10.041Z,1.609344
2018-08-18T01:33:22.485Z,8.04672
2018-08-18T01:33:34.899Z,3.218688
2018-08-18T01:33:47.325Z,3.218688
2018-08-18T01:33:59.755Z,1.609344
2018-08-18T01:34:12.161Z,4.828032
2018-08-18T01:34:24.560Z,3.218688
2018-08-18T01:34:36.981Z,6.437376
2018-08-18T01:34:49.425Z,3.218688
2018-08-18T01:35:01.850Z,3.218688
2018-08-18T01:35:14.265Z,3.218688
2018-08-18T01:35:26.681Z,6.437376
2018-08-18T01:35:39.088Z,8.04672
2018-08-18T01:35:51.493Z,8.04672
2018-08-18T01:36:03.902Z,6.437376
2018-08-18T01:36:16.326Z,8.04672
2018-08-18T01:36:28.766Z,8.04672
2018-08-18T01:36:41.184Z,8.04672
2018-08-18T01:36:53.609Z,6.437376
2018-08-18T01:37:06.018Z,6.437376
2018-08-18T01:37:18.420Z,8.04672
2018-08-18T01:37:30.979Z,9.656064
2018-08-18T01:37:43.392Z,9.656064
2018-08-18T01:37:55.809Z,12.874752
2018-08-18T01:38:08.225Z,9.656064
2018-08-18T01:38:20.665Z,11.265408
2018-08-18T01:38:33.104Z,8.04672
2018-08-18T01:38:45.578Z,8.04672
2018-08-18T01:38:58.021Z,6.437376
2018-08-18T01:39:10.536Z,4.828032
2018-08-18T01:39:23.097Z,8.04672
2018-08-18T01:39:35.537Z,9.656064
2018-08-18T01:39:47.974Z,6.437376
2018-08-18T01:40:00.396Z,8.04672
2018-08-18T01:40:12.930Z,6.437376
2018-08-18T01:40:25.361Z,6.437376
2018-08-18T01:40:37.789Z,9.656064
2018-08-18T01:40:50.205Z,8.04672
2018-08-18T01:41:02.625Z,6.437376
2018-08-18T01:41:15.052Z,8.04672
2018-08-18T01:41:27.484Z,6.437376
2018-08-18T01:41:39.954Z,6.437376
2018-08-18T01:41:52.400Z,3.218688
2018-08-18T01:42:04.810Z,1.609344
2018-08-18T01:42:17.217Z,4.828032
2018-08-18T01:42:29.639Z,6.437376
2018-08-18T01:42:42.067Z,1.609344
2018-08-18T01:42:54.495Z,3.218688
2018-08-18T01:43:06.910Z,6.437376
2018-08-18T01:43:19.318Z,3.218688
2018-08-18T01:43:31.741Z,8.04672
2018-08-18T01:43:44.389Z,6.437376
2018-08-18T01:43:58.048Z,8.04672
2018-08-18T01:44:10.474Z,6.437376
2018-08-18T01:44:22.962Z,9.656064
2018-08-18T01:44:35.380Z,8.04672
2018-08-18T01:44:47.824Z,8.04672
2018-08-18T01:45:00.241Z,8.04672
2018-08-18T01:45:12.721Z,6.437376
2018-08-18T01:45:25.142Z,3.218688
2018-08-18T01:45:37.584Z,4.828032
2018-08-18T01:45:50.167Z,3.218688
2018-08-18T01:46:02.599Z,1.609344
2018-08-18T01:46:15.003Z,1.609344
2018-08-18T01:46:27.427Z,3.218688
2018-08-18T01:46:39.830Z,6.437376
2018-08-18T01:46:52.241Z,6.437376
2018-08-18T01:47:04.673Z,8.04672
2018-08-18T01:47:17.084Z,3.218688
2018-08-18T01:47:29.495Z,1.609344
2018-08-18T01:47:41.908Z,3.218688
2018-08-18T01:47:54.312Z,3.218688
2018-08-18T01:48:06.736Z,8.04672
2018-08-18T01:48:19.137Z,8.04672
2018-08-18T01:48:31.550Z,6.437376
2018-08-18T01:48:43.961Z,3.218688
2018-08-18T01:48:56.373Z,3.218688
2018-08-18T01:49:08.955Z,3.218688
2018-08-18T01:49:21.365Z,4.828032
2018-08-18T01:49:33.795Z,3.218688
2018-08-18T01:49:46.201Z,0
2018-08-18T01:49:58.654Z,3.218688
2018-08-18T01:50:11.126Z,8.04672
2018-08-18T01:50:23.537Z,1.609344
2018-08-18T01:50:36.001Z,3.218688
2018-08-18T01:50:48.427Z,1.609344
2018-08-18T01:51:00.846Z,3.218688
2018-08-18T01:51:13.257Z,1.609344
2018-08-18T01:51:25.672Z,0
2018-08-18T01:51:38.066Z,1.609344
2018-08-18T01:51:50.567Z,6.437376
2018-08-18T01:52:03.186Z,1.609344
2018-08-18T01:52:15.603Z,3.218688
2018-08-18T01:52:28.007Z,6.437376
2018-08-18T01:52:40.404Z,8.04672
2018-08-18T01:52:52.824Z,4.828032
2018-08-18T01:53:05.225Z,4.828032
2018-08-18T01:53:17.625Z,6.437376
2018-08-18T01:53:30.046Z,6.437376
2018-08-18T01:53:42.469Z,9.656064
2018-08-18T01:53:54.885Z,8.04672
2018-08-18T01:54:07.435Z,6.437376
2018-08-18T01:54:19.844Z,4.828032
2018-08-18T01:54:32.243Z,3.218688
2018-08-18T01:54:44.661Z,6.437376
2018-08-18T01:54:57.100Z,6.437376
2018-08-18T01:55:09.540Z,6.437376
2018-08-18T01:55:21.958Z,8.04672
2018-08-18T01:55:34.372Z,6.437376
2018-08-18T01:55:46.779Z,8.04672
2018-08-18T01:55:59.202Z,9.656064
2018-08-18T01:56:11.618Z,9.656064
2018-08-18T01:56:24.045Z,6.437376
2018-08-18T01:56:36.480Z,6.437376
2018-08-18T01:56:48.879Z,8.04672
2018-08-18T01:57:01.318Z,3.218688
2018-08-18T01:57:13.762Z,4.828032
2018-08-18T01:57:26.181Z,4.828032
2018-08-18T01:57:38.603Z,8.04672
2018-08-18T01:57:51.028Z,6.437376
2018-08-18T01:58:03.522Z,9.656064
2018-08-18T01:58:15.932Z,9.656064
2018-08-18T01:58:28.370Z,4.828032
2018-08-18T01:58:40.787Z,4.828032
2018-08-18T01:58:53.200Z,8.04672
2018-08-18T01:59:05.625Z,6.437376
2018-08-18T01:59:18.026Z,1.609344
2018-08-18T01:59:30.429Z,3.218688
2018-08-18T01:59:42.847Z,3.218688
2018-08-18T01:59:55.317Z,6.437376
2018-08-18T02:00:07.752Z,6.437376
2018-08-18T02:00:20.246Z,4.828032
2018-08-18T02:00:32.755Z,6.437376
2018-08-18T02:00:45.199Z,3.218688
2018-08-18T02:00:57.627Z,4.828032
2018-08-18T02:01:10.055Z,6.437376
2018-08-18T02:01:22.495Z,8.04672
2018-08-18T02:01:34.912Z,8.04672
2018-08-18T02:01:47.353Z,3.218688
2018-08-18T02:02:00.031Z,3.218688
2018-08-18T02:02:12.466Z,9.656064
2018-08-18T02:02:24.899Z,6.437376
2018-08-18T02:02:37.532Z,6.437376
2018-08-18T02:02:49.966Z,6.437376
2018-08-18T02:03:02.402Z,8.04672
2018-08-18T02:03:14.844Z,4.828032
2018-08-18T02:03:27.280Z,3.218688
2018-08-18T02:03:39.716Z,4.828032
2018-08-18T02:03:52.130Z,8.04672
2018-08-18T02:04:04.532Z,3.218688
2018-08-18T02:04:16.964Z,1.609344
2018-08-18T02:04:29.380Z,6.437376
2018-08-18T02:04:41.793Z,8.04672
2018-08-18T02:04:54.228Z,6.437376
2018-08-18T02:05:06.651Z,4.828032
2018-08-18T02:05:19.101Z,6.437376
2018-08-18T02:05:31.567Z,6.437376
2018-08-18T02:05:43.993Z,6.437376
2018-08-18T02:05:56.393Z,3.218688
2018-08-18T02:06:08.813Z,3.218688
2018-08-18T02:06:21.233Z,1.609344
2018-08-18T02:06:33.688Z,0
2018-08-18T02:06:46.123Z,0
2018-08-18T02:06:58.608Z,8.04672
2018-08-18T02:07:11.016Z,6.437376
2018-08-18T02:07:23.458Z,4.828032
2018-08-18T02:07:35.859Z,3.218688
2018-08-18T02:07:48.274Z,3.218688
2018-08-18T02:08:00.698Z,0
2018-08-18T02:08:13.136Z,0
2018-08-18T02:08:25.567Z,1.609344
2018-08-18T02:08:38.129Z,3.218688
2018-08-18T02:08:50.523Z,1.609344
2018-08-18T02:09:02.934Z,0
2018-08-18T02:09:15.358Z,1.609344
2018-08-18T02:09:27.825Z,0
2018-08-18T02:09:40.257Z,1.609344
2018-08-18T02:09:52.719Z,1.609344
2018-08-18T02:10:05.145Z,0
2018-08-18T02:10:17.571Z,1.609344
2018-08-18T02:10:30.014Z,3.218688
2018-08-18T02:10:42.434Z,3.218688
2018-08-18T02:10:54.879Z,1.609344
2018-08-18T02:11:07.457Z,3.218688
2018-08-18T02:11:19.864Z,3.218688
2018-08-18T02:11:32.280Z,4.828032
2018-08-18T02:11:44.835Z,6.437376
2018-08-18T02:11:57.251Z,8.04672
2018-08-18T02:12:09.677Z,4.828032
2018-08-18T02:12:22.119Z,6.437376
2018-08-18T02:12:34.545Z,3.218688
2018-08-18T02:12:46.965Z,1.609344
2018-08-18T02:12:59.375Z,3.218688
2018-08-18T02:13:11.833Z,3.218688
2018-08-18T02:13:24.274Z,6.437376
2018-08-18T02:13:36.722Z,1.609344
2018-08-18T02:13:49.146Z,3.218688
2018-08-18T02:14:01.555Z,6.437376
2018-08-18T02:14:14.010Z,6.437376
2018-08-18T02:14:26.407Z,6.437376
2018-08-18T02:14:38.824Z,6.437376
2018-08-18T02:14:51.231Z,3.218688
2018-08-18T02:15:03.663Z,1.609344
2018-08-18T02:15:16.072Z,1.609344
2018-08-18T02:15:28.485Z,3.218688
2018-08-18T02:15:40.957Z,3.218688
2018-08-18T02:15:53.373Z,6.437376
2018-08-18T02:16:05.792Z,6.437376
2018-08-18T02:16:18.358Z,3.218688
2018-08-18T02:16:30.761Z,6.437376
2018-08-18T02:16:43.654Z,3.218688
2018-08-18T02:16:56.084Z,4.828032
2018-08-18T02:17:08.533Z,1.609344
2018-08-18T02:17:20.942Z,6.437376
2018-08-18T02:17:33.386Z,8.04672
2018-08-18T02:17:46.036Z,8.04672
2018-08-18T02:17:58.467Z,8.04672
2018-08-18T02:18:10.893Z,6.437376
2018-08-18T02:18:23.314Z,3.218688
2018-08-18T02:18:35.733Z,4.828032
2018-08-18T02:18:48.159Z,8.04672
2018-08-18T02:19:00.562Z,6.437376
2018-08-18T02:19:12.979Z,4.828032
2018-08-18T02:19:25.403Z,3.218688
2018-08-18T02:19:37.847Z,3.218688
2018-08-18T02:19:50.370Z,1.609344
2018-08-18T02:20:03.911Z,1.609344
2018-08-18T02:20:17.227Z,3.218688
2018-08-18T02:20:29.662Z,1.609344
2018-08-18T02:20:42.165Z,1.609344
2018-08-18T02:20:54.598Z,1.609344
2018-08-18T02:21:07.007Z,3.218688
2018-08-18T02:21:19.418Z,3.218688
2018-08-18T02:21:31.838Z,4.828032
2018-08-18T02:21:44.261Z,3.218688
2018-08-18T02:21:56.671Z,1.609344
2018-08-18T02:22:09.094Z,6.437376
2018-08-18T02:22:21.701Z,6.437376
2018-08-18T02:22:34.126Z,6.437376
2018-08-18T02:22:46.537Z,6.437376
2018-08-18T02:22:58.979Z,6.437376
2018-08-18T02:23:11.408Z,3.218688
2018-08-18T02:23:23.840Z,8.04672
2018-08-18T02:23:36.250Z,8.04672
2018-08-18T02:23:48.644Z,3.218688
2018-08-18T02:24:01.059Z,3.218688
2018-08-18T02:24:13.470Z,6.437376
2018-08-18T02:24:25.871Z,8.04672
2018-08-18T02:24:38.277Z,3.218688
2018-08-18T02:24:50.769Z,1.609344
2018-08-18T02:25:03.459Z,1.609344
2018-08-18T02:25:15.891Z,1.609344
2018-08-18T02:25:28.300Z,1.609344
2018-08-18T02:25:40.718Z,1.609344
2018-08-18T02:25:53.142Z,0
2018-08-18T02:26:05.562Z,1.609344
2018-08-18T02:26:18.004Z,3.218688
2018-08-18T02:26:30.463Z,3.218688
2018-08-18T02:26:43.032Z,6.437376
2018-08-18T02:26:55.431Z,6.437376
2018-08-18T02:27:07.842Z,6.437376
2018-08-18T02:27:20.267Z,3.218688
2018-08-18T02:27:32.820Z,3.218688
2018-08-18T02:27:45.274Z,3.218688
2018-08-18T02:27:57.703Z,3.218688
2018-08-18T02:28:10.115Z,3.218688
2018-08-18T02:28:22.530Z,1.609344
2018-08-18T02:28:34.934Z,3.218688